sensor_id;sensor_type;location;lat;lon;timestamp;temperature;humidity
5476;DHT22;2760;50.000;9.194;2023-06-26T00:01:40;19.70;99.90
5476;DHT22;2760;50.000;9.194;2023-06-26T00:04:08;19.50;99.90
5476;DHT22;2760;50.000;9.194;2023-06-26T00:06:41;18.70;99.90
5476;DHT22;2760;50.000;9.194;2023-06-26T00:09:08;19.90;99.90
5476;DHT22;2760;50.000;9.194;2023-06-26T00:11:35;19.30;99.90
5476;DHT22;2760;50.000;9.194;2023-06-26T00:14:02;19.30;99.90
5476;DHT22;2760;50.000;9.194;2023-06-26T00:16:30;19.10;99.90
5476;DHT22;2760;50.000;9.194;2023-06-26T00:18:57;19.00;99.90
5476;DHT22;2760;50.000;9.194;2023-06-26T00:21:25;17.20;99.90
5476;DHT22;2760;50.000;9.194;2023-06-26T00:23:55;18.80;99.90
5476;DHT22;2760;50.000;9.194;2023-06-26T00:26:22;18.10;99.90
5476;DHT22;2760;50.000;9.194;2023-06-26T00:28:49;18.10;99.90
5476;DHT22;2760;50.000;9.194;2023-06-26T00:31:17;18.80;99.90
5476;DHT22;2760;50.000;9.194;2023-06-26T00:33:46;18.80;99.90
5476;DHT22;2760;50.000;9.194;2023-06-26T00:36:14;18.90;99.90
5476;DHT22;2760;50.000;9.194;2023-06-26T00:38:41;18.90;99.90
5476;DHT22;2760;50.000;9.194;2023-06-26T00:41:09;18.80;99.90
5476;DHT22;2760;50.000;9.194;2023-06-26T00:43:38;18.90;99.90
5476;DHT22;2760;50.000;9.194;2023-06-26T00:46:12;18.70;99.90
5476;DHT22;2760;50.000;9.194;2023-06-26T00:48:42;18.60;99.90
5476;DHT22;2760;50.000;9.194;2023-06-26T00:51:10;18.40;99.90
5476;DHT22;2760;50.000;9.194;2023-06-26T00:53:38;18.30;99.90
5476;DHT22;2760;50.000;9.194;2023-06-26T00:56:09;17.90;99.90
5476;DHT22;2760;50.000;9.194;2023-06-26T00:58:36;18.30;99.90
5476;DHT22;2760;50.000;9.194;2023-06-26T01:01:03;16.00;99.90
5476;DHT22;2760;50.000;9.194;2023-06-26T01:03:31;18.50;99.90
5476;DHT22;2760;50.000;9.194;2023-06-26T01:05:59;18.30;99.90
5476;DHT22;2760;50.000;9.194;2023-06-26T01:08:27;18.40;99.90
5476;DHT22;2760;50.000;9.194;2023-06-26T01:10:54;18.40;99.90
5476;DHT22;2760;50.000;9.194;2023-06-26T01:13:23;18.40;99.90
5476;DHT22;2760;50.000;9.194;2023-06-26T01:15:51;18.40;99.90
5476;DHT22;2760;50.000;9.194;2023-06-26T01:18:19;18.30;99.90
5476;DHT22;2760;50.000;9.194;2023-06-26T01:20:47;18.20;99.90
5476;DHT22;2760;50.000;9.194;2023-06-26T01:23:20;18.40;99.90
5476;DHT22;2760;50.000;9.194;2023-06-26T01:26:09;18.20;99.90
5476;DHT22;2760;50.000;9.194;2023-06-26T01:28:38;18.10;99.90
5476;DHT22;2760;50.000;9.194;2023-06-26T01:31:07;17.90;99.90
5476;DHT22;2760;50.000;9.194;2023-06-26T01:33:35;17.90;99.90
5476;DHT22;2760;50.000;9.194;2023-06-26T01:36:03;17.80;99.90
5476;DHT22;2760;50.000;9.194;2023-06-26T01:38:34;17.70;99.90
5476;DHT22;2760;50.000;9.194;2023-06-26T01:41:02;17.70;99.90
5476;DHT22;2760;50.000;9.194;2023-06-26T01:43:37;17.60;99.90
5476;DHT22;2760;50.000;9.194;2023-06-26T01:46:16;17.60;99.90
5476;DHT22;2760;50.000;9.194;2023-06-26T01:48:53;17.70;99.90
5476;DHT22;2760;50.000;9.194;2023-06-26T01:51:25;17.60;99.90
5476;DHT22;2760;50.000;9.194;2023-06-26T01:53:55;17.80;99.90
5476;DHT22;2760;50.000;9.194;2023-06-26T01:56:24;17.80;99.90
5476;DHT22;2760;50.000;9.194;2023-06-26T01:58:55;17.80;99.90
5476;DHT22;2760;50.000;9.194;2023-06-26T02:01:23;17.70;99.90
5476;DHT22;2760;50.000;9.194;2023-06-26T02:03:50;17.60;99.90
5476;DHT22;2760;50.000;9.194;2023-06-26T02:06:17;17.50;99.90
5476;DHT22;2760;50.000;9.194;2023-06-26T02:08:44;17.50;99.90
5476;DHT22;2760;50.000;9.194;2023-06-26T02:11:11;17.50;99.90
5476;DHT22;2760;50.000;9.194;2023-06-26T02:13:39;17.50;99.90
5476;DHT22;2760;50.000;9.194;2023-06-26T02:16:08;15.80;99.90
5476;DHT22;2760;50.000;9.194;2023-06-26T02:18:35;17.50;99.90
5476;DHT22;2760;50.000;9.194;2023-06-26T02:21:03;17.40;99.90
5476;DHT22;2760;50.000;9.194;2023-06-26T02:23:30;17.50;99.90
5476;DHT22;2760;50.000;9.194;2023-06-26T02:25:57;17.60;99.90
5476;DHT22;2760;50.000;9.194;2023-06-26T02:28:24;17.80;99.90
5476;DHT22;2760;50.000;9.194;2023-06-26T02:30:52;17.60;99.90
5476;DHT22;2760;50.000;9.194;2023-06-26T02:33:20;17.70;99.90
5476;DHT22;2760;50.000;9.194;2023-06-26T02:35:48;17.70;99.90
5476;DHT22;2760;50.000;9.194;2023-06-26T02:38:16;17.40;99.90
5476;DHT22;2760;50.000;9.194;2023-06-26T02:40:45;17.30;99.90
5476;DHT22;2760;50.000;9.194;2023-06-26T02:43:14;17.20;99.90
5476;DHT22;2760;50.000;9.194;2023-06-26T02:45:43;17.00;99.90
5476;DHT22;2760;50.000;9.194;2023-06-26T02:48:11;17.20;99.90
5476;DHT22;2760;50.000;9.194;2023-06-26T02:50:41;17.10;99.90
5476;DHT22;2760;50.000;9.194;2023-06-26T02:53:13;17.20;99.90
5476;DHT22;2760;50.000;9.194;2023-06-26T02:55:43;17.30;99.90
5476;DHT22;2760;50.000;9.194;2023-06-26T02:58:10;15.10;99.90
5476;DHT22;2760;50.000;9.194;2023-06-26T03:00:38;17.20;99.90
5476;DHT22;2760;50.000;9.194;2023-06-26T03:03:09;17.30;99.90
5476;DHT22;2760;50.000;9.194;2023-06-26T03:05:38;17.20;99.90
5476;DHT22;2760;50.000;9.194;2023-06-26T03:08:07;17.40;99.90
5476;DHT22;2760;50.000;9.194;2023-06-26T03:10:34;17.50;99.90
5476;DHT22;2760;50.000;9.194;2023-06-26T03:13:01;17.60;99.90
5476;DHT22;2760;50.000;9.194;2023-06-26T03:15:31;17.60;99.90
5476;DHT22;2760;50.000;9.194;2023-06-26T03:17:58;17.50;99.90
5476;DHT22;2760;50.000;9.194;2023-06-26T03:20:28;15.70;99.90
5476;DHT22;2760;50.000;9.194;2023-06-26T03:22:57;17.40;99.90
5476;DHT22;2760;50.000;9.194;2023-06-26T03:25:27;17.30;99.90
5476;DHT22;2760;50.000;9.194;2023-06-26T03:28:08;16.90;99.90
5476;DHT22;2760;50.000;9.194;2023-06-26T03:30:35;16.90;99.90
5476;DHT22;2760;50.000;9.194;2023-06-26T03:33:03;16.00;99.90
5476;DHT22;2760;50.000;9.194;2023-06-26T03:35:37;16.70;99.90
5476;DHT22;2760;50.000;9.194;2023-06-26T03:38:04;16.80;99.90
5476;DHT22;2760;50.000;9.194;2023-06-26T03:40:34;16.60;99.90
5476;DHT22;2760;50.000;9.194;2023-06-26T03:43:02;16.90;99.90
5476;DHT22;2760;50.000;9.194;2023-06-26T03:45:38;16.60;99.90
5476;DHT22;2760;50.000;9.194;2023-06-26T03:48:05;16.30;99.90
5476;DHT22;2760;50.000;9.194;2023-06-26T03:50:35;16.60;99.90
5476;DHT22;2760;50.000;9.194;2023-06-26T03:53:02;16.80;99.90
5476;DHT22;2760;50.000;9.194;2023-06-26T03:55:29;15.40;99.90
5476;DHT22;2760;50.000;9.194;2023-06-26T03:57:58;16.90;99.90
5476;DHT22;2760;50.000;9.194;2023-06-26T04:00:26;16.80;99.90
5476;DHT22;2760;50.000;9.194;2023-06-26T04:02:55;17.20;99.90
5476;DHT22;2760;50.000;9.194;2023-06-26T04:05:26;15.90;99.90
5476;DHT22;2760;50.000;9.194;2023-06-26T04:07:53;17.30;99.90
5476;DHT22;2760;50.000;9.194;2023-06-26T04:10:25;17.50;99.90
5476;DHT22;2760;50.000;9.194;2023-06-26T04:12:52;17.60;99.90
5476;DHT22;2760;50.000;9.194;2023-06-26T04:15:22;17.70;99.90
5476;DHT22;2760;50.000;9.194;2023-06-26T04:17:49;17.70;99.90
5476;DHT22;2760;50.000;9.194;2023-06-26T04:20:16;15.70;99.90
5476;DHT22;2760;50.000;9.194;2023-06-26T04:22:44;17.40;99.90
5476;DHT22;2760;50.000;9.194;2023-06-26T04:25:12;16.40;99.90
5476;DHT22;2760;50.000;9.194;2023-06-26T04:27:39;16.60;99.90
5476;DHT22;2760;50.000;9.194;2023-06-26T04:30:07;18.00;99.90
5476;DHT22;2760;50.000;9.194;2023-06-26T04:32:36;15.90;99.90
5476;DHT22;2760;50.000;9.194;2023-06-26T04:35:06;17.90;99.90
5476;DHT22;2760;50.000;9.194;2023-06-26T04:37:35;18.00;99.90
5476;DHT22;2760;50.000;9.194;2023-06-26T04:40:05;18.00;99.90
5476;DHT22;2760;50.000;9.194;2023-06-26T04:42:35;18.10;99.90
5476;DHT22;2760;50.000;9.194;2023-06-26T04:45:05;18.20;99.90
5476;DHT22;2760;50.000;9.194;2023-06-26T04:47:33;18.40;99.90
5476;DHT22;2760;50.000;9.194;2023-06-26T04:50:02;18.60;99.90
5476;DHT22;2760;50.000;9.194;2023-06-26T04:52:29;18.70;99.90
5476;DHT22;2760;50.000;9.194;2023-06-26T04:54:58;18.70;99.90
5476;DHT22;2760;50.000;9.194;2023-06-26T04:57:25;19.00;99.90
5476;DHT22;2760;50.000;9.194;2023-06-26T04:59:52;19.10;99.90
5476;DHT22;2760;50.000;9.194;2023-06-26T05:02:20;19.20;99.90
5476;DHT22;2760;50.000;9.194;2023-06-26T05:04:47;19.30;99.90
5476;DHT22;2760;50.000;9.194;2023-06-26T05:07:21;19.50;99.90
5476;DHT22;2760;50.000;9.194;2023-06-26T05:09:49;19.40;99.90
5476;DHT22;2760;50.000;9.194;2023-06-26T05:12:16;18.60;99.90
5476;DHT22;2760;50.000;9.194;2023-06-26T05:14:44;19.60;99.90
5476;DHT22;2760;50.000;9.194;2023-06-26T05:17:14;20.20;99.90
5476;DHT22;2760;50.000;9.194;2023-06-26T05:19:41;20.40;99.90
5476;DHT22;2760;50.000;9.194;2023-06-26T05:22:09;20.60;99.90
5476;DHT22;2760;50.000;9.194;2023-06-26T05:24:40;20.80;99.90
5476;DHT22;2760;50.000;9.194;2023-06-26T05:27:12;19.70;99.90
5476;DHT22;2760;50.000;9.194;2023-06-26T05:29:47;21.00;99.90
5476;DHT22;2760;50.000;9.194;2023-06-26T05:32:16;18.90;99.90
5476;DHT22;2760;50.000;9.194;2023-06-26T05:34:47;21.20;99.90
5476;DHT22;2760;50.000;9.194;2023-06-26T05:37:22;21.10;99.90
5476;DHT22;2760;50.000;9.194;2023-06-26T05:39:57;22.90;99.90
5476;DHT22;2760;50.000;9.194;2023-06-26T05:42:26;21.50;99.90
5476;DHT22;2760;50.000;9.194;2023-06-26T05:45:08;21.90;99.90
5476;DHT22;2760;50.000;9.194;2023-06-26T05:47:38;22.00;99.90
5476;DHT22;2760;50.000;9.194;2023-06-26T05:50:07;22.30;99.90
5476;DHT22;2760;50.000;9.194;2023-06-26T05:52:42;22.30;99.90
5476;DHT22;2760;50.000;9.194;2023-06-26T05:55:24;22.50;99.90
5476;DHT22;2760;50.000;9.194;2023-06-26T05:57:54;22.80;99.90
5476;DHT22;2760;50.000;9.194;2023-06-26T06:00:31;22.90;99.90
5476;DHT22;2760;50.000;9.194;2023-06-26T06:03:00;23.10;99.90
5476;DHT22;2760;50.000;9.194;2023-06-26T06:05:29;22.90;99.80
5476;DHT22;2760;50.000;9.194;2023-06-26T06:07:59;22.90;99.90
5476;DHT22;2760;50.000;9.194;2023-06-26T06:10:43;23.30;99.60
5476;DHT22;2760;50.000;9.194;2023-06-26T06:13:11;23.40;99.50
5476;DHT22;2760;50.000;9.194;2023-06-26T06:15:38;23.50;98.70
5476;DHT22;2760;50.000;9.194;2023-06-26T06:18:10;23.60;98.70
5476;DHT22;2760;50.000;9.194;2023-06-26T06:24:27;23.80;98.30
5476;DHT22;2760;50.000;9.194;2023-06-26T06:26:56;23.90;98.50
5476;DHT22;2760;50.000;9.194;2023-06-26T06:29:24;24.40;97.40
5476;DHT22;2760;50.000;9.194;2023-06-26T06:31:52;24.70;97.00
5476;DHT22;2760;50.000;9.194;2023-06-26T06:34:21;24.90;96.30
5476;DHT22;2760;50.000;9.194;2023-06-26T06:37:03;24.40;96.90
5476;DHT22;2760;50.000;9.194;2023-06-26T06:39:30;24.90;97.50
5476;DHT22;2760;50.000;9.194;2023-06-26T06:42:00;25.20;96.70
5476;DHT22;2760;50.000;9.194;2023-06-26T06:44:29;25.50;95.80
5476;DHT22;2760;50.000;9.194;2023-06-26T06:46:58;25.80;95.10
5476;DHT22;2760;50.000;9.194;2023-06-26T06:49:27;25.60;95.50
5476;DHT22;2760;50.000;9.194;2023-06-26T06:51:54;26.10;94.90
5476;DHT22;2760;50.000;9.194;2023-06-26T06:54:25;26.20;95.00
5476;DHT22;2760;50.000;9.194;2023-06-26T06:56:52;26.00;94.80
5476;DHT22;2760;50.000;9.194;2023-06-26T06:59:23;26.40;94.60
5476;DHT22;2760;50.000;9.194;2023-06-26T07:01:52;26.40;94.70
5476;DHT22;2760;50.000;9.194;2023-06-26T07:04:22;26.80;94.10
5476;DHT22;2760;50.000;9.194;2023-06-26T07:06:49;26.50;94.40
5476;DHT22;2760;50.000;9.194;2023-06-26T07:09:18;27.00;93.40
5476;DHT22;2760;50.000;9.194;2023-06-26T07:11:46;26.30;93.40
5476;DHT22;2760;50.000;9.194;2023-06-26T07:14:13;27.00;93.60
5476;DHT22;2760;50.000;9.194;2023-06-26T07:16:42;27.40;93.40
5476;DHT22;2760;50.000;9.194;2023-06-26T07:19:14;27.10;94.30
5476;DHT22;2760;50.000;9.194;2023-06-26T07:21:41;27.10;93.80
5476;DHT22;2760;50.000;9.194;2023-06-26T07:24:11;27.20;93.40
5476;DHT22;2760;50.000;9.194;2023-06-26T07:26:48;27.40;93.40
5476;DHT22;2760;50.000;9.194;2023-06-26T07:29:15;27.70;93.30
5476;DHT22;2760;50.000;9.194;2023-06-26T07:31:43;27.60;93.20
5476;DHT22;2760;50.000;9.194;2023-06-26T07:34:11;28.20;92.40
5476;DHT22;2760;50.000;9.194;2023-06-26T07:36:39;28.30;92.00
5476;DHT22;2760;50.000;9.194;2023-06-26T07:39:08;28.70;92.20
5476;DHT22;2760;50.000;9.194;2023-06-26T07:41:36;28.30;91.50
5476;DHT22;2760;50.000;9.194;2023-06-26T07:44:04;28.30;91.70
5476;DHT22;2760;50.000;9.194;2023-06-26T07:46:32;28.80;91.50
5476;DHT22;2760;50.000;9.194;2023-06-26T07:49:01;28.60;91.20
5476;DHT22;2760;50.000;9.194;2023-06-26T07:51:29;28.80;90.90
5476;DHT22;2760;50.000;9.194;2023-06-26T07:53:56;29.30;90.20
5476;DHT22;2760;50.000;9.194;2023-06-26T07:56:25;29.10;90.60
5476;DHT22;2760;50.000;9.194;2023-06-26T07:58:52;29.30;90.40
5476;DHT22;2760;50.000;9.194;2023-06-26T08:01:20;29.20;89.60
5476;DHT22;2760;50.000;9.194;2023-06-26T08:03:48;29.60;90.10
5476;DHT22;2760;50.000;9.194;2023-06-26T08:06:16;29.60;87.70
5476;DHT22;2760;50.000;9.194;2023-06-26T08:08:44;30.10;88.20
5476;DHT22;2760;50.000;9.194;2023-06-26T08:11:13;30.20;88.30
5476;DHT22;2760;50.000;9.194;2023-06-26T08:13:47;30.20;87.40
5476;DHT22;2760;50.000;9.194;2023-06-26T08:16:15;30.50;84.00
5476;DHT22;2760;50.000;9.194;2023-06-26T08:18:42;30.40;87.20
5476;DHT22;2760;50.000;9.194;2023-06-26T08:21:09;31.00;85.70
5476;DHT22;2760;50.000;9.194;2023-06-26T08:23:38;30.80;85.00
5476;DHT22;2760;50.000;9.194;2023-06-26T08:26:05;31.10;85.60
5476;DHT22;2760;50.000;9.194;2023-06-26T08:28:35;30.60;83.40
5476;DHT22;2760;50.000;9.194;2023-06-26T08:31:03;31.00;83.00
5476;DHT22;2760;50.000;9.194;2023-06-26T08:33:30;31.40;84.30
5476;DHT22;2760;50.000;9.194;2023-06-26T08:35:58;31.30;83.30
5476;DHT22;2760;50.000;9.194;2023-06-26T08:38:28;31.40;80.40
5476;DHT22;2760;50.000;9.194;2023-06-26T08:41:00;31.50;80.70
5476;DHT22;2760;50.000;9.194;2023-06-26T08:43:28;31.80;79.00
5476;DHT22;2760;50.000;9.194;2023-06-26T08:45:56;32.00;80.70
5476;DHT22;2760;50.000;9.194;2023-06-26T08:48:24;32.10;80.20
5476;DHT22;2760;50.000;9.194;2023-06-26T08:50:53;31.90;80.10
5476;DHT22;2760;50.000;9.194;2023-06-26T08:53:26;32.00;80.60
5476;DHT22;2760;50.000;9.194;2023-06-26T08:55:58;31.50;80.20
5476;DHT22;2760;50.000;9.194;2023-06-26T08:58:35;31.40;84.00
5476;DHT22;2760;50.000;9.194;2023-06-26T09:01:05;31.70;81.80
5476;DHT22;2760;50.000;9.194;2023-06-26T09:03:34;31.70;81.90
5476;DHT22;2760;50.000;9.194;2023-06-26T09:06:02;32.10;80.70
5476;DHT22;2760;50.000;9.194;2023-06-26T09:08:29;31.80;79.90
5476;DHT22;2760;50.000;9.194;2023-06-26T09:10:58;32.10;79.70
5476;DHT22;2760;50.000;9.194;2023-06-26T09:13:34;32.20;80.30
5476;DHT22;2760;50.000;9.194;2023-06-26T09:16:06;32.80;81.30
5476;DHT22;2760;50.000;9.194;2023-06-26T09:18:34;32.60;78.00
5476;DHT22;2760;50.000;9.194;2023-06-26T09:21:07;32.90;80.00
5476;DHT22;2760;50.000;9.194;2023-06-26T09:23:35;32.80;77.60
5476;DHT22;2760;50.000;9.194;2023-06-26T09:26:07;32.90;79.00
5476;DHT22;2760;50.000;9.194;2023-06-26T09:28:35;32.50;78.60
5476;DHT22;2760;50.000;9.194;2023-06-26T09:31:07;32.00;78.00
5476;DHT22;2760;50.000;9.194;2023-06-26T09:33:38;33.30;78.30
5476;DHT22;2760;50.000;9.194;2023-06-26T09:36:08;32.40;76.70
5476;DHT22;2760;50.000;9.194;2023-06-26T09:38:36;30.50;76.40
5476;DHT22;2760;50.000;9.194;2023-06-26T09:41:07;32.80;78.50
5476;DHT22;2760;50.000;9.194;2023-06-26T09:43:46;32.90;77.70
5476;DHT22;2760;50.000;9.194;2023-06-26T09:46:37;33.30;76.50
5476;DHT22;2760;50.000;9.194;2023-06-26T09:49:06;33.90;74.60
5476;DHT22;2760;50.000;9.194;2023-06-26T09:51:36;33.90;74.20
5476;DHT22;2760;50.000;9.194;2023-06-26T09:54:05;34.10;73.90
5476;DHT22;2760;50.000;9.194;2023-06-26T09:56:34;34.50;72.10
5476;DHT22;2760;50.000;9.194;2023-06-26T09:59:03;34.50;72.60
5476;DHT22;2760;50.000;9.194;2023-06-26T10:01:31;34.50;73.00
5476;DHT22;2760;50.000;9.194;2023-06-26T10:03:59;32.60;72.00
5476;DHT22;2760;50.000;9.194;2023-06-26T10:06:30;33.90;72.70
5476;DHT22;2760;50.000;9.194;2023-06-26T10:09:00;34.30;73.70
5476;DHT22;2760;50.000;9.194;2023-06-26T10:11:40;34.00;72.20
5476;DHT22;2760;50.000;9.194;2023-06-26T10:14:13;33.60;72.70
5476;DHT22;2760;50.000;9.194;2023-06-26T10:16:42;33.10;74.60
5476;DHT22;2760;50.000;9.194;2023-06-26T10:19:10;33.50;75.10
5476;DHT22;2760;50.000;9.194;2023-06-26T10:21:41;33.80;74.10
5476;DHT22;2760;50.000;9.194;2023-06-26T10:24:10;34.00;73.90
5476;DHT22;2760;50.000;9.194;2023-06-26T10:26:44;34.20;71.90
5476;DHT22;2760;50.000;9.194;2023-06-26T10:29:13;33.90;74.90
5476;DHT22;2760;50.000;9.194;2023-06-26T10:31:49;34.10;73.30
5476;DHT22;2760;50.000;9.194;2023-06-26T10:34:17;34.10;71.70
5476;DHT22;2760;50.000;9.194;2023-06-26T10:36:44;34.50;72.50
5476;DHT22;2760;50.000;9.194;2023-06-26T10:39:13;33.90;72.70
5476;DHT22;2760;50.000;9.194;2023-06-26T10:41:42;33.30;72.90
5476;DHT22;2760;50.000;9.194;2023-06-26T10:44:10;33.40;73.60
5476;DHT22;2760;50.000;9.194;2023-06-26T10:46:52;33.60;74.60
5476;DHT22;2760;50.000;9.194;2023-06-26T10:49:27;32.60;74.50
5476;DHT22;2760;50.000;9.194;2023-06-26T10:52:01;31.40;74.00
5476;DHT22;2760;50.000;9.194;2023-06-26T10:54:30;32.70;75.20
5476;DHT22;2760;50.000;9.194;2023-06-26T10:57:02;32.90;74.30
5476;DHT22;2760;50.000;9.194;2023-06-26T10:59:31;33.10;74.70
5476;DHT22;2760;50.000;9.194;2023-06-26T11:02:06;33.00;75.10
5476;DHT22;2760;50.000;9.194;2023-06-26T11:04:40;32.50;75.20
5476;DHT22;2760;50.000;9.194;2023-06-26T11:07:19;32.40;75.90
5476;DHT22;2760;50.000;9.194;2023-06-26T11:09:55;32.30;76.60
5476;DHT22;2760;50.000;9.194;2023-06-26T11:12:42;32.20;76.00
5476;DHT22;2760;50.000;9.194;2023-06-26T11:15:11;32.00;77.90
5476;DHT22;2760;50.000;9.194;2023-06-26T11:18:00;31.80;77.30
5476;DHT22;2760;50.000;9.194;2023-06-26T11:20:29;30.40;78.10
5476;DHT22;2760;50.000;9.194;2023-06-26T11:22:56;32.20;77.60
5476;DHT22;2760;50.000;9.194;2023-06-26T11:25:24;32.40;77.90
5476;DHT22;2760;50.000;9.194;2023-06-26T11:27:53;31.80;80.20
5476;DHT22;2760;50.000;9.194;2023-06-26T11:30:28;31.90;78.30
5476;DHT22;2760;50.000;9.194;2023-06-26T11:33:05;31.60;78.80
5476;DHT22;2760;50.000;9.194;2023-06-26T11:35:35;31.80;78.40
5476;DHT22;2760;50.000;9.194;2023-06-26T11:38:04;32.10;78.60
5476;DHT22;2760;50.000;9.194;2023-06-26T11:40:33;32.30;78.00
5476;DHT22;2760;50.000;9.194;2023-06-26T11:43:03;32.20;78.80
5476;DHT22;2760;50.000;9.194;2023-06-26T11:45:32;32.00;79.00
5476;DHT22;2760;50.000;9.194;2023-06-26T11:48:00;32.00;78.60
5476;DHT22;2760;50.000;9.194;2023-06-26T11:50:28;32.10;79.20
5476;DHT22;2760;50.000;9.194;2023-06-26T11:52:55;31.70;79.80
5476;DHT22;2760;50.000;9.194;2023-06-26T11:55:24;31.40;80.80
5476;DHT22;2760;50.000;9.194;2023-06-26T11:57:54;31.40;82.40
5476;DHT22;2760;50.000;9.194;2023-06-26T12:00:31;29.90;79.80
5476;DHT22;2760;50.000;9.194;2023-06-26T12:02:59;31.10;80.80
5476;DHT22;2760;50.000;9.194;2023-06-26T12:05:29;31.10;82.10
5476;DHT22;2760;50.000;9.194;2023-06-26T12:08:00;31.40;81.90
5476;DHT22;2760;50.000;9.194;2023-06-26T12:10:28;31.50;80.70
5476;DHT22;2760;50.000;9.194;2023-06-26T12:12:57;31.50;81.90
5476;DHT22;2760;50.000;9.194;2023-06-26T12:15:28;31.50;81.20
5476;DHT22;2760;50.000;9.194;2023-06-26T12:17:57;31.30;81.10
5476;DHT22;2760;50.000;9.194;2023-06-26T12:20:29;31.10;81.40
5476;DHT22;2760;50.000;9.194;2023-06-26T12:22:58;31.20;81.30
5476;DHT22;2760;50.000;9.194;2023-06-26T12:25:25;31.30;82.40
5476;DHT22;2760;50.000;9.194;2023-06-26T12:27:53;31.20;82.50
5476;DHT22;2760;50.000;9.194;2023-06-26T12:30:21;31.20;82.70
5476;DHT22;2760;50.000;9.194;2023-06-26T12:32:50;31.60;81.00
5476;DHT22;2760;50.000;9.194;2023-06-26T12:35:17;32.00;79.70
5476;DHT22;2760;50.000;9.194;2023-06-26T12:37:45;32.40;80.10
5476;DHT22;2760;50.000;9.194;2023-06-26T12:40:19;32.90;78.70
5476;DHT22;2760;50.000;9.194;2023-06-26T12:42:48;33.10;77.10
5476;DHT22;2760;50.000;9.194;2023-06-26T12:45:37;33.10;77.50
5476;DHT22;2760;50.000;9.194;2023-06-26T12:48:12;33.00;77.20
5476;DHT22;2760;50.000;9.194;2023-06-26T12:50:43;32.30;74.30
5476;DHT22;2760;50.000;9.194;2023-06-26T12:53:16;33.30;76.90
5476;DHT22;2760;50.000;9.194;2023-06-26T12:55:44;31.60;74.90
5476;DHT22;2760;50.000;9.194;2023-06-26T12:58:19;31.70;74.50
5476;DHT22;2760;50.000;9.194;2023-06-26T13:00:46;33.00;76.10
5476;DHT22;2760;50.000;9.194;2023-06-26T13:03:18;33.30;75.20
5476;DHT22;2760;50.000;9.194;2023-06-26T13:05:50;32.90;76.00
5476;DHT22;2760;50.000;9.194;2023-06-26T13:08:17;32.60;75.90
5476;DHT22;2760;50.000;9.194;2023-06-26T13:10:47;32.90;76.50
5476;DHT22;2760;50.000;9.194;2023-06-26T13:13:14;32.60;76.30
5476;DHT22;2760;50.000;9.194;2023-06-26T13:15:44;32.40;76.70
5476;DHT22;2760;50.000;9.194;2023-06-26T13:18:12;32.50;76.60
5476;DHT22;2760;50.000;9.194;2023-06-26T13:20:50;32.50;77.90
5476;DHT22;2760;50.000;9.194;2023-06-26T13:23:20;32.50;77.00
5476;DHT22;2760;50.000;9.194;2023-06-26T13:25:49;32.50;77.70
5476;DHT22;2760;50.000;9.194;2023-06-26T13:28:28;32.80;76.60
5476;DHT22;2760;50.000;9.194;2023-06-26T13:30:57;33.10;76.30
5476;DHT22;2760;50.000;9.194;2023-06-26T13:33:26;31.60;74.00
5476;DHT22;2760;50.000;9.194;2023-06-26T13:35:58;33.50;75.10
5476;DHT22;2760;50.000;9.194;2023-06-26T13:38:32;31.80;74.70
5476;DHT22;2760;50.000;9.194;2023-06-26T13:41:04;33.90;73.90
5476;DHT22;2760;50.000;9.194;2023-06-26T13:43:33;33.80;75.00
5476;DHT22;2760;50.000;9.194;2023-06-26T13:46:14;34.00;75.50
5476;DHT22;2760;50.000;9.194;2023-06-26T13:48:42;33.50;76.60
5476;DHT22;2760;50.000;9.194;2023-06-26T13:51:13;33.00;78.20
5476;DHT22;2760;50.000;9.194;2023-06-26T13:53:41;32.40;79.60
5476;DHT22;2760;50.000;9.194;2023-06-26T13:56:10;29.60;80.60
5476;DHT22;2760;50.000;9.194;2023-06-26T13:58:37;30.60;80.30
5476;DHT22;2760;50.000;9.194;2023-06-26T14:01:05;31.60;81.00
5476;DHT22;2760;50.000;9.194;2023-06-26T14:03:33;31.60;81.20
5476;DHT22;2760;50.000;9.194;2023-06-26T14:06:03;32.10;80.00
5476;DHT22;2760;50.000;9.194;2023-06-26T14:08:34;32.00;80.80
5476;DHT22;2760;50.000;9.194;2023-06-26T14:11:18;31.70;80.30
5476;DHT22;2760;50.000;9.194;2023-06-26T14:13:50;31.00;82.20
5476;DHT22;2760;50.000;9.194;2023-06-26T14:16:17;31.30;81.70
5476;DHT22;2760;50.000;9.194;2023-06-26T14:18:46;30.40;81.70
5476;DHT22;2760;50.000;9.194;2023-06-26T14:21:14;30.90;83.10
5476;DHT22;2760;50.000;9.194;2023-06-26T14:23:44;30.10;81.00
5476;DHT22;2760;50.000;9.194;2023-06-26T14:26:12;30.90;81.70
5476;DHT22;2760;50.000;9.194;2023-06-26T14:28:41;30.60;83.00
5476;DHT22;2760;50.000;9.194;2023-06-26T14:31:09;30.60;83.00
5476;DHT22;2760;50.000;9.194;2023-06-26T14:33:36;30.90;83.00
5476;DHT22;2760;50.000;9.194;2023-06-26T14:36:05;31.10;83.00
5476;DHT22;2760;50.000;9.194;2023-06-26T14:38:33;31.00;82.90
5476;DHT22;2760;50.000;9.194;2023-06-26T14:41:04;31.10;82.20
5476;DHT22;2760;50.000;9.194;2023-06-26T14:43:36;31.30;82.70
5476;DHT22;2760;50.000;9.194;2023-06-26T14:46:20;31.90;81.80
5476;DHT22;2760;50.000;9.194;2023-06-26T14:48:48;31.00;82.10
5476;DHT22;2760;50.000;9.194;2023-06-26T14:51:21;31.30;82.00
5476;DHT22;2760;50.000;9.194;2023-06-26T14:53:49;31.30;83.00
5476;DHT22;2760;50.000;9.194;2023-06-26T14:56:32;31.20;81.50
5476;DHT22;2760;50.000;9.194;2023-06-26T14:59:00;30.90;81.20
5476;DHT22;2760;50.000;9.194;2023-06-26T15:01:33;31.10;82.20
5476;DHT22;2760;50.000;9.194;2023-06-26T15:04:04;30.60;81.50
5476;DHT22;2760;50.000;9.194;2023-06-26T15:06:45;30.50;82.40
5476;DHT22;2760;50.000;9.194;2023-06-26T15:09:44;30.40;81.60
5476;DHT22;2760;50.000;9.194;2023-06-26T15:12:14;30.10;82.30
5476;DHT22;2760;50.000;9.194;2023-06-26T15:14:47;29.70;82.40
5476;DHT22;2760;50.000;9.194;2023-06-26T15:17:14;29.90;82.60
5476;DHT22;2760;50.000;9.194;2023-06-26T15:19:42;30.20;81.60
5476;DHT22;2760;50.000;9.194;2023-06-26T15:22:11;28.40;81.40
5476;DHT22;2760;50.000;9.194;2023-06-26T15:24:49;28.80;80.20
5476;DHT22;2760;50.000;9.194;2023-06-26T15:27:34;29.80;80.80
5476;DHT22;2760;50.000;9.194;2023-06-26T15:30:06;29.70;81.20
5476;DHT22;2760;50.000;9.194;2023-06-26T15:32:36;29.80;79.50
5476;DHT22;2760;50.000;9.194;2023-06-26T15:35:17;29.80;79.40
5476;DHT22;2760;50.000;9.194;2023-06-26T15:37:54;29.50;79.70
5476;DHT22;2760;50.000;9.194;2023-06-26T15:40:27;29.70;79.80
5476;DHT22;2760;50.000;9.194;2023-06-26T15:43:14;29.50;78.90
5476;DHT22;2760;50.000;9.194;2023-06-26T15:45:42;29.70;77.80
5476;DHT22;2760;50.000;9.194;2023-06-26T15:48:14;29.70;77.90
5476;DHT22;2760;50.000;9.194;2023-06-26T15:50:54;29.50;77.90
5476;DHT22;2760;50.000;9.194;2023-06-26T15:53:34;29.40;77.80
5476;DHT22;2760;50.000;9.194;2023-06-26T15:56:19;29.70;76.40
5476;DHT22;2760;50.000;9.194;2023-06-26T16:02:03;28.90;76.80
5476;DHT22;2760;50.000;9.194;2023-06-26T16:04:35;28.80;76.70
5476;DHT22;2760;50.000;9.194;2023-06-26T16:07:17;28.90;75.90
5476;DHT22;2760;50.000;9.194;2023-06-26T16:09:44;29.20;75.50
5476;DHT22;2760;50.000;9.194;2023-06-26T16:12:12;28.80;76.40
5476;DHT22;2760;50.000;9.194;2023-06-26T16:14:43;28.70;76.00
5476;DHT22;2760;50.000;9.194;2023-06-26T16:39:38;28.10;73.80
5476;DHT22;2760;50.000;9.194;2023-06-26T16:42:20;28.20;75.10
5476;DHT22;2760;50.000;9.194;2023-06-26T16:45:01;27.10;73.30
5476;DHT22;2760;50.000;9.194;2023-06-26T16:47:43;26.50;72.30
5476;DHT22;2760;50.000;9.194;2023-06-26T16:50:42;26.90;73.20
5476;DHT22;2760;50.000;9.194;2023-06-26T16:53:24;28.00;73.50